sensor_id;sensor_type;location;lat;lon;timestamp;temperature;humidity
23803;DHT22;12082;51.786;6.018;2023-02-22T00:00:28;7.00;99.90
23803;DHT22;12082;51.786;6.018;2023-02-22T00:03:10;7.00;99.90
23803;DHT22;12082;51.786;6.018;2023-02-22T00:05:37;7.00;99.90
23803;DHT22;12082;51.786;6.018;2023-02-22T00:08:06;6.90;99.90
23803;DHT22;12082;51.786;6.018;2023-02-22T00:10:36;7.00;99.90
23803;DHT22;12082;51.786;6.018;2023-02-22T00:13:07;7.00;99.90
23803;DHT22;12082;51.786;6.018;2023-02-22T00:15:33;6.90;99.90
23803;DHT22;12082;51.786;6.018;2023-02-22T00:17:59;6.90;99.90
23803;DHT22;12082;51.786;6.018;2023-02-22T00:20:25;6.70;99.90
23803;DHT22;12082;51.786;6.018;2023-02-22T00:22:51;6.90;99.90
23803;DHT22;12082;51.786;6.018;2023-02-22T00:25:20;6.90;99.90
23803;DHT22;12082;51.786;6.018;2023-02-22T00:27:46;6.90;99.90
23803;DHT22;12082;51.786;6.018;2023-02-22T00:30:18;6.90;99.90
23803;DHT22;12082;51.786;6.018;2023-02-22T00:32:45;6.80;99.90
23803;DHT22;12082;51.786;6.018;2023-02-22T00:35:15;6.90;99.90
23803;DHT22;12082;51.786;6.018;2023-02-22T00:37:40;6.80;99.90
23803;DHT22;12082;51.786;6.018;2023-02-22T00:40:10;6.80;99.90
23803;DHT22;12082;51.786;6.018;2023-02-22T00:42:36;6.80;99.90
23803;DHT22;12082;51.786;6.018;2023-02-22T00:45:03;6.80;99.90
23803;DHT22;12082;51.786;6.018;2023-02-22T00:47:29;6.80;99.90
23803;DHT22;12082;51.786;6.018;2023-02-22T00:49:55;6.80;99.90
23803;DHT22;12082;51.786;6.018;2023-02-22T00:52:21;6.80;99.90
23803;DHT22;12082;51.786;6.018;2023-02-22T00:54:46;6.80;99.90
23803;DHT22;12082;51.786;6.018;2023-02-22T00:57:12;6.80;99.90
23803;DHT22;12082;51.786;6.018;2023-02-22T00:59:38;6.80;99.90
23803;DHT22;12082;51.786;6.018;2023-02-22T01:02:04;6.80;99.90
23803;DHT22;12082;51.786;6.018;2023-02-22T01:04:30;6.80;99.90
23803;DHT22;12082;51.786;6.018;2023-02-22T01:06:56;6.80;99.90
23803;DHT22;12082;51.786;6.018;2023-02-22T01:09:22;6.70;99.90
23803;DHT22;12082;51.786;6.018;2023-02-22T01:11:52;6.70;99.90
23803;DHT22;12082;51.786;6.018;2023-02-22T01:14:20;6.70;99.90
23803;DHT22;12082;51.786;6.018;2023-02-22T01:16:45;6.70;99.90
23803;DHT22;12082;51.786;6.018;2023-02-22T01:19:11;6.70;99.90
23803;DHT22;12082;51.786;6.018;2023-02-22T01:21:39;6.70;99.90
23803;DHT22;12082;51.786;6.018;2023-02-22T01:24:05;6.60;99.90
23803;DHT22;12082;51.786;6.018;2023-02-22T01:26:31;6.60;99.90
23803;DHT22;12082;51.786;6.018;2023-02-22T01:28:56;6.60;99.90
23803;DHT22;12082;51.786;6.018;2023-02-22T01:31:22;6.60;99.90
23803;DHT22;12082;51.786;6.018;2023-02-22T01:33:49;6.60;99.90
23803;DHT22;12082;51.786;6.018;2023-02-22T01:36:16;6.60;99.90
23803;DHT22;12082;51.786;6.018;2023-02-22T01:38:43;6.60;99.90
23803;DHT22;12082;51.786;6.018;2023-02-22T01:41:11;6.50;99.90
23803;DHT22;12082;51.786;6.018;2023-02-22T01:43:37;6.50;99.90
23803;DHT22;12082;51.786;6.018;2023-02-22T01:51:26;6.40;99.90
23803;DHT22;12082;51.786;6.018;2023-02-22T01:54:00;6.40;99.90
23803;DHT22;12082;51.786;6.018;2023-02-22T01:56:29;6.50;99.90
23803;DHT22;12082;51.786;6.018;2023-02-22T01:59:07;6.50;99.90
23803;DHT22;12082;51.786;6.018;2023-02-22T02:01:35;6.40;99.90
23803;DHT22;12082;51.786;6.018;2023-02-22T02:04:06;6.40;99.90
23803;DHT22;12082;51.786;6.018;2023-02-22T02:06:33;6.40;99.90
23803;DHT22;12082;51.786;6.018;2023-02-22T02:09:21;6.40;99.90
23803;DHT22;12082;51.786;6.018;2023-02-22T02:11:48;6.40;99.90
23803;DHT22;12082;51.786;6.018;2023-02-22T02:14:14;6.30;99.90
23803;DHT22;12082;51.786;6.018;2023-02-22T02:16:46;6.30;99.90
23803;DHT22;12082;51.786;6.018;2023-02-22T02:33:30;6.30;99.90
23803;DHT22;12082;51.786;6.018;2023-02-22T02:36:03;6.20;99.90
23803;DHT22;12082;51.786;6.018;2023-02-22T02:38:42;6.30;99.90
23803;DHT22;12082;51.786;6.018;2023-02-22T02:44:09;6.20;99.90
23803;DHT22;12082;51.786;6.018;2023-02-22T02:49:30;6.20;99.90
23803;DHT22;12082;51.786;6.018;2023-02-22T02:51:59;6.20;99.90
23803;DHT22;12082;51.786;6.018;2023-02-22T02:54:25;6.10;99.90
23803;DHT22;12082;51.786;6.018;2023-02-22T02:56:51;6.10;99.90
23803;DHT22;12082;51.786;6.018;2023-02-22T02:59:42;6.00;99.90
23803;DHT22;12082;51.786;6.018;2023-02-22T03:11:11;5.90;99.90
23803;DHT22;12082;51.786;6.018;2023-02-22T03:16:32;5.90;99.90
23803;DHT22;12082;51.786;6.018;2023-02-22T03:21:57;5.80;99.90
23803;DHT22;12082;51.786;6.018;2023-02-22T03:24:38;5.90;99.90
23803;DHT22;12082;51.786;6.018;2023-02-22T03:27:21;5.80;99.90
23803;DHT22;12082;51.786;6.018;2023-02-22T03:29:50;5.80;99.90
23803;DHT22;12082;51.786;6.018;2023-02-22T03:32:21;5.80;99.90
23803;DHT22;12082;51.786;6.018;2023-02-22T03:34:56;5.80;99.90
23803;DHT22;12082;51.786;6.018;2023-02-22T03:37:30;5.70;99.90
23803;DHT22;12082;51.786;6.018;2023-02-22T03:39:58;5.70;99.90
23803;DHT22;12082;51.786;6.018;2023-02-22T03:42:29;5.70;99.90
23803;DHT22;12082;51.786;6.018;2023-02-22T03:44:59;5.70;99.90
23803;DHT22;12082;51.786;6.018;2023-02-22T03:47:38;5.60;99.90
23803;DHT22;12082;51.786;6.018;2023-02-22T03:50:13;5.60;99.90
23803;DHT22;12082;51.786;6.018;2023-02-22T03:52:41;5.60;99.90
23803;DHT22;12082;51.786;6.018;2023-02-22T03:55:09;5.60;99.90
23803;DHT22;12082;51.786;6.018;2023-02-22T03:57:39;5.60;99.90
23803;DHT22;12082;51.786;6.018;2023-02-22T04:00:08;5.50;99.90
23803;DHT22;12082;51.786;6.018;2023-02-22T04:02:34;5.50;99.90
23803;DHT22;12082;51.786;6.018;2023-02-22T04:05:00;5.50;99.90
23803;DHT22;12082;51.786;6.018;2023-02-22T04:07:26;5.00;99.90
23803;DHT22;12082;51.786;6.018;2023-02-22T04:09:51;5.50;99.90
23803;DHT22;12082;51.786;6.018;2023-02-22T04:12:17;5.50;99.90
23803;DHT22;12082;51.786;6.018;2023-02-22T04:14:42;5.50;99.90
23803;DHT22;12082;51.786;6.018;2023-02-22T04:17:08;5.50;99.90
23803;DHT22;12082;51.786;6.018;2023-02-22T04:19:34;5.50;99.90
23803;DHT22;12082;51.786;6.018;2023-02-22T04:22:00;5.50;99.90
23803;DHT22;12082;51.786;6.018;2023-02-22T04:24:25;5.50;99.90
23803;DHT22;12082;51.786;6.018;2023-02-22T04:26:51;5.50;99.90
23803;DHT22;12082;51.786;6.018;2023-02-22T04:29:17;5.50;99.90
23803;DHT22;12082;51.786;6.018;2023-02-22T04:31:42;5.50;99.90
23803;DHT22;12082;51.786;6.018;2023-02-22T04:34:08;5.50;99.90
23803;DHT22;12082;51.786;6.018;2023-02-22T04:36:33;5.50;99.90
23803;DHT22;12082;51.786;6.018;2023-02-22T04:38:59;5.50;99.90
23803;DHT22;12082;51.786;6.018;2023-02-22T04:41:25;5.50;99.90
23803;DHT22;12082;51.786;6.018;2023-02-22T04:43:51;5.50;99.90
23803;DHT22;12082;51.786;6.018;2023-02-22T04:46:17;5.40;99.90
23803;DHT22;12082;51.786;6.018;2023-02-22T04:48:42;5.40;99.90
23803;DHT22;12082;51.786;6.018;2023-02-22T04:51:08;5.40;99.90
23803;DHT22;12082;51.786;6.018;2023-02-22T04:53:34;5.50;99.90
23803;DHT22;12082;51.786;6.018;2023-02-22T04:56:00;5.50;99.90
23803;DHT22;12082;51.786;6.018;2023-02-22T04:58:26;5.50;99.90
23803;DHT22;12082;51.786;6.018;2023-02-22T05:00:52;5.40;99.90
23803;DHT22;12082;51.786;6.018;2023-02-22T05:03:17;5.50;99.90
23803;DHT22;12082;51.786;6.018;2023-02-22T05:05:43;5.50;99.90
23803;DHT22;12082;51.786;6.018;2023-02-22T05:08:08;5.50;99.90
23803;DHT22;12082;51.786;6.018;2023-02-22T05:10:34;5.90;99.90
23803;DHT22;12082;51.786;6.018;2023-02-22T05:13:00;5.50;99.90
23803;DHT22;12082;51.786;6.018;2023-02-22T05:15:25;5.50;99.90
23803;DHT22;12082;51.786;6.018;2023-02-22T05:17:51;5.50;99.90
23803;DHT22;12082;51.786;6.018;2023-02-22T05:20:26;5.40;99.90
23803;DHT22;12082;51.786;6.018;2023-02-22T05:22:53;5.40;99.90
23803;DHT22;12082;51.786;6.018;2023-02-22T05:25:19;5.30;99.90
23803;DHT22;12082;51.786;6.018;2023-02-22T05:27:52;5.30;99.90
23803;DHT22;12082;51.786;6.018;2023-02-22T05:30:20;5.30;99.90
23803;DHT22;12082;51.786;6.018;2023-02-22T05:32:47;5.30;99.90
23803;DHT22;12082;51.786;6.018;2023-02-22T05:35:13;5.30;99.90
23803;DHT22;12082;51.786;6.018;2023-02-22T05:37:39;5.30;99.90
23803;DHT22;12082;51.786;6.018;2023-02-22T05:40:05;5.30;99.90
23803;DHT22;12082;51.786;6.018;2023-02-22T05:42:32;5.40;99.90
23803;DHT22;12082;51.786;6.018;2023-02-22T05:44:57;5.40;99.90
23803;DHT22;12082;51.786;6.018;2023-02-22T05:47:25;5.40;99.90
23803;DHT22;12082;51.786;6.018;2023-02-22T05:49:50;5.40;99.90
23803;DHT22;12082;51.786;6.018;2023-02-22T05:52:16;5.50;99.90
23803;DHT22;12082;51.786;6.018;2023-02-22T05:54:41;5.50;99.90
23803;DHT22;12082;51.786;6.018;2023-02-22T05:57:07;5.50;99.90
23803;DHT22;12082;51.786;6.018;2023-02-22T05:59:33;5.50;99.90
23803;DHT22;12082;51.786;6.018;2023-02-22T06:01:59;5.50;99.90
23803;DHT22;12082;51.786;6.018;2023-02-22T06:04:24;5.60;99.90
23803;DHT22;12082;51.786;6.018;2023-02-22T06:06:50;5.60;99.90
23803;DHT22;12082;51.786;6.018;2023-02-22T06:09:15;5.50;99.90
23803;DHT22;12082;51.786;6.018;2023-02-22T06:11:41;5.60;99.90
23803;DHT22;12082;51.786;6.018;2023-02-22T06:14:07;5.60;99.90
23803;DHT22;12082;51.786;6.018;2023-02-22T06:16:32;5.60;99.90
23803;DHT22;12082;51.786;6.018;2023-02-22T06:18:58;5.60;99.90
23803;DHT22;12082;51.786;6.018;2023-02-22T06:21:24;5.60;99.90
23803;DHT22;12082;51.786;6.018;2023-02-22T06:23:51;5.60;99.90
23803;DHT22;12082;51.786;6.018;2023-02-22T06:26:17;5.40;99.90
23803;DHT22;12082;51.786;6.018;2023-02-22T06:28:44;5.70;99.90
23803;DHT22;12082;51.786;6.018;2023-02-22T06:31:09;5.70;99.90
23803;DHT22;12082;51.786;6.018;2023-02-22T06:33:35;5.70;99.90
23803;DHT22;12082;51.786;6.018;2023-02-22T06:36:00;5.70;99.90
23803;DHT22;12082;51.786;6.018;2023-02-22T06:38:26;5.70;99.90
23803;DHT22;12082;51.786;6.018;2023-02-22T06:40:52;5.70;99.90
23803;DHT22;12082;51.786;6.018;2023-02-22T06:43:20;5.70;99.90
23803;DHT22;12082;51.786;6.018;2023-02-22T06:45:46;5.70;99.90
23803;DHT22;12082;51.786;6.018;2023-02-22T06:48:12;5.70;99.90
23803;DHT22;12082;51.786;6.018;2023-02-22T06:50:37;5.70;99.90
23803;DHT22;12082;51.786;6.018;2023-02-22T06:53:04;5.70;99.90
23803;DHT22;12082;51.786;6.018;2023-02-22T06:55:31;5.70;99.90
23803;DHT22;12082;51.786;6.018;2023-02-22T06:57:58;5.70;99.90
23803;DHT22;12082;51.786;6.018;2023-02-22T07:00:25;5.70;99.90
23803;DHT22;12082;51.786;6.018;2023-02-22T07:02:52;5.70;99.90
23803;DHT22;12082;51.786;6.018;2023-02-22T07:05:19;5.70;99.90
23803;DHT22;12082;51.786;6.018;2023-02-22T07:07:47;5.80;99.90
23803;DHT22;12082;51.786;6.018;2023-02-22T07:10:20;5.80;99.90
23803;DHT22;12082;51.786;6.018;2023-02-22T07:12:46;5.80;99.90
23803;DHT22;12082;51.786;6.018;2023-02-22T07:15:13;5.80;99.90
23803;DHT22;12082;51.786;6.018;2023-02-22T07:17:39;5.60;99.90
23803;DHT22;12082;51.786;6.018;2023-02-22T07:20:06;5.70;99.90
23803;DHT22;12082;51.786;6.018;2023-02-22T07:22:32;5.80;99.90
23803;DHT22;12082;51.786;6.018;2023-02-22T07:24:57;5.80;99.90
23803;DHT22;12082;51.786;6.018;2023-02-22T07:27:24;5.80;99.90
23803;DHT22;12082;51.786;6.018;2023-02-22T07:29:50;5.90;99.90
23803;DHT22;12082;51.786;6.018;2023-02-22T07:32:15;5.90;99.90
23803;DHT22;12082;51.786;6.018;2023-02-22T07:34:41;5.90;99.90
23803;DHT22;12082;51.786;6.018;2023-02-22T07:37:07;5.90;99.90
23803;DHT22;12082;51.786;6.018;2023-02-22T07:39:33;5.90;99.90
23803;DHT22;12082;51.786;6.018;2023-02-22T07:41:59;5.90;99.90
23803;DHT22;12082;51.786;6.018;2023-02-22T07:44:25;5.90;99.90
23803;DHT22;12082;51.786;6.018;2023-02-22T07:46:50;5.90;99.90
23803;DHT22;12082;51.786;6.018;2023-02-22T07:49:16;5.90;99.90
23803;DHT22;12082;51.786;6.018;2023-02-22T07:51:42;5.90;99.90
23803;DHT22;12082;51.786;6.018;2023-02-22T07:54:07;5.90;99.90
23803;DHT22;12082;51.786;6.018;2023-02-22T07:56:33;5.90;99.90
23803;DHT22;12082;51.786;6.018;2023-02-22T07:58:58;6.00;99.90
23803;DHT22;12082;51.786;6.018;2023-02-22T08:01:25;6.10;99.90
23803;DHT22;12082;51.786;6.018;2023-02-22T08:03:51;6.00;99.90
23803;DHT22;12082;51.786;6.018;2023-02-22T08:06:17;6.10;99.90
23803;DHT22;12082;51.786;6.018;2023-02-22T08:08:42;6.10;99.90
23803;DHT22;12082;51.786;6.018;2023-02-22T08:11:08;6.10;99.90
23803;DHT22;12082;51.786;6.018;2023-02-22T08:13:33;6.10;99.90
23803;DHT22;12082;51.786;6.018;2023-02-22T08:16:01;6.10;99.90
23803;DHT22;12082;51.786;6.018;2023-02-22T08:18:27;6.20;99.90
23803;DHT22;12082;51.786;6.018;2023-02-22T08:20:53;6.10;99.90
23803;DHT22;12082;51.786;6.018;2023-02-22T08:23:21;6.10;99.90
23803;DHT22;12082;51.786;6.018;2023-02-22T08:25:47;6.20;99.90
23803;DHT22;12082;51.786;6.018;2023-02-22T08:28:14;6.20;99.90
23803;DHT22;12082;51.786;6.018;2023-02-22T08:30:41;6.30;99.90
23803;DHT22;12082;51.786;6.018;2023-02-22T08:33:09;6.30;99.90
23803;DHT22;12082;51.786;6.018;2023-02-22T08:35:35;6.40;99.90
23803;DHT22;12082;51.786;6.018;2023-02-22T08:38:04;6.40;99.90
23803;DHT22;12082;51.786;6.018;2023-02-22T08:40:33;6.50;99.90
23803;DHT22;12082;51.786;6.018;2023-02-22T08:42:59;6.50;99.90
23803;DHT22;12082;51.786;6.018;2023-02-22T08:45:26;6.60;99.90
23803;DHT22;12082;51.786;6.018;2023-02-22T08:47:52;6.60;99.90
23803;DHT22;12082;51.786;6.018;2023-02-22T08:50:23;6.60;99.90
23803;DHT22;12082;51.786;6.018;2023-02-22T08:52:51;6.60;99.90
23803;DHT22;12082;51.786;6.018;2023-02-22T08:55:26;6.60;99.90
23803;DHT22;12082;51.786;6.018;2023-02-22T08:57:52;6.60;99.90
23803;DHT22;12082;51.786;6.018;2023-02-22T09:00:19;6.60;99.90
23803;DHT22;12082;51.786;6.018;2023-02-22T09:02:45;6.70;99.90
23803;DHT22;12082;51.786;6.018;2023-02-22T09:05:11;6.80;99.90
23803;DHT22;12082;51.786;6.018;2023-02-22T09:07:40;6.80;99.90
23803;DHT22;12082;51.786;6.018;2023-02-22T09:10:07;6.90;99.90
23803;DHT22;12082;51.786;6.018;2023-02-22T09:12:32;6.90;99.90
23803;DHT22;12082;51.786;6.018;2023-02-22T09:14:58;7.00;99.90
23803;DHT22;12082;51.786;6.018;2023-02-22T09:17:23;7.10;99.90
23803;DHT22;12082;51.786;6.018;2023-02-22T09:19:49;7.10;99.90
23803;DHT22;12082;51.786;6.018;2023-02-22T09:22:14;7.10;99.90
23803;DHT22;12082;51.786;6.018;2023-02-22T09:24:40;7.20;99.90
23803;DHT22;12082;51.786;6.018;2023-02-22T09:27:07;7.20;99.90
23803;DHT22;12082;51.786;6.018;2023-02-22T09:29:34;7.30;99.90
23803;DHT22;12082;51.786;6.018;2023-02-22T09:32:00;7.30;99.90
23803;DHT22;12082;51.786;6.018;2023-02-22T09:34:25;7.50;99.90
23803;DHT22;12082;51.786;6.018;2023-02-22T09:36:54;7.50;99.90
23803;DHT22;12082;51.786;6.018;2023-02-22T09:39:21;7.40;99.90
23803;DHT22;12082;51.786;6.018;2023-02-22T09:41:55;7.70;99.90
23803;DHT22;12082;51.786;6.018;2023-02-22T09:44:28;7.80;99.90
23803;DHT22;12082;51.786;6.018;2023-02-22T09:47:00;7.90;99.90
23803;DHT22;12082;51.786;6.018;2023-02-22T09:49:35;7.80;99.90
23803;DHT22;12082;51.786;6.018;2023-02-22T09:52:17;8.10;99.90
23803;DHT22;12082;51.786;6.018;2023-02-22T09:54:48;7.90;99.90
23803;DHT22;12082;51.786;6.018;2023-02-22T09:57:26;8.00;99.90
23803;DHT22;12082;51.786;6.018;2023-02-22T10:02:45;7.90;99.90
23803;DHT22;12082;51.786;6.018;2023-02-22T10:05:26;8.00;99.90
23803;DHT22;12082;51.786;6.018;2023-02-22T10:07:57;8.20;99.90
23803;DHT22;12082;51.786;6.018;2023-02-22T10:10:27;8.40;99.90
23803;DHT22;12082;51.786;6.018;2023-02-22T10:13:08;8.40;99.90
23803;DHT22;12082;51.786;6.018;2023-02-22T10:15:55;8.50;99.90
23803;DHT22;12082;51.786;6.018;2023-02-22T10:21:45;8.70;99.90
23803;DHT22;12082;51.786;6.018;2023-02-22T10:26:43;8.90;99.90
23803;DHT22;12082;51.786;6.018;2023-02-22T10:31:57;8.90;99.90
23803;DHT22;12082;51.786;6.018;2023-02-22T10:34:26;9.00;99.90
23803;DHT22;12082;51.786;6.018;2023-02-22T10:37:02;9.00;99.90
23803;DHT22;12082;51.786;6.018;2023-02-22T10:39:32;9.00;99.90
23803;DHT22;12082;51.786;6.018;2023-02-22T10:42:02;9.70;99.90
23803;DHT22;12082;51.786;6.018;2023-02-22T10:44:37;10.10;99.90
23803;DHT22;12082;51.786;6.018;2023-02-22T10:47:09;9.30;99.90
23803;DHT22;12082;51.786;6.018;2023-02-22T10:49:40;9.40;99.90
23803;DHT22;12082;51.786;6.018;2023-02-22T10:52:21;9.40;99.90
23803;DHT22;12082;51.786;6.018;2023-02-22T10:54:49;9.70;99.90
23803;DHT22;12082;51.786;6.018;2023-02-22T10:57:21;9.70;99.90
23803;DHT22;12082;51.786;6.018;2023-02-22T10:59:48;9.80;99.90
23803;DHT22;12082;51.786;6.018;2023-02-22T11:02:30;9.80;99.90
23803;DHT22;12082;51.786;6.018;2023-02-22T11:05:00;10.00;99.90
23803;DHT22;12082;51.786;6.018;2023-02-22T11:07:34;10.20;99.90
23803;DHT22;12082;51.786;6.018;2023-02-22T11:10:02;10.30;99.90
23803;DHT22;12082;51.786;6.018;2023-02-22T11:12:36;10.40;99.90
23803;DHT22;12082;51.786;6.018;2023-02-22T11:15:26;10.40;99.90
23803;DHT22;12082;51.786;6.018;2023-02-22T11:17:55;10.60;99.90
23803;DHT22;12082;51.786;6.018;2023-02-22T11:20:26;10.50;99.90
23803;DHT22;12082;51.786;6.018;2023-02-22T11:22:56;10.70;99.90
23803;DHT22;12082;51.786;6.018;2023-02-22T11:28:16;11.20;99.90
23803;DHT22;12082;51.786;6.018;2023-02-22T11:30:48;11.30;99.90
